sensor_id;sensor_type;location;lat;lon;timestamp;temperature;humidity
11501;DHT22;5807;51.606;7.624;2022-09-09T00:01:43;14.90;99.90
11501;DHT22;5807;51.606;7.624;2022-09-09T00:04:24;14.80;99.90
11501;DHT22;5807;51.606;7.624;2022-09-09T00:06:59;14.90;99.90
11501;DHT22;5807;51.606;7.624;2022-09-09T00:09:31;14.80;99.90
11501;DHT22;5807;51.606;7.624;2022-09-09T00:14:42;14.80;99.90
11501;DHT22;5807;51.606;7.624;2022-09-09T00:17:14;14.80;99.90
11501;DHT22;5807;51.606;7.624;2022-09-09T00:19:51;14.80;99.90
11501;DHT22;5807;51.606;7.624;2022-09-09T00:22:20;14.70;99.90
11501;DHT22;5807;51.606;7.624;2022-09-09T00:24:51;14.70;99.90
11501;DHT22;5807;51.606;7.624;2022-09-09T00:27:26;14.70;99.90
11501;DHT22;5807;51.606;7.624;2022-09-09T00:29:58;14.70;99.90
11501;DHT22;5807;51.606;7.624;2022-09-09T00:32:28;14.70;99.90
11501;DHT22;5807;51.606;7.624;2022-09-09T00:35:02;14.60;99.90
11501;DHT22;5807;51.606;7.624;2022-09-09T00:37:31;14.60;99.90
11501;DHT22;5807;51.606;7.624;2022-09-09T00:40:01;15.30;99.90
11501;DHT22;5807;51.606;7.624;2022-09-09T00:42:38;14.50;99.90
11501;DHT22;5807;51.606;7.624;2022-09-09T00:45:19;14.40;99.90
11501;DHT22;5807;51.606;7.624;2022-09-09T00:50:35;14.40;99.90
11501;DHT22;5807;51.606;7.624;2022-09-09T00:53:17;14.40;99.90
11501;DHT22;5807;51.606;7.624;2022-09-09T00:55:49;14.40;99.90
11501;DHT22;5807;51.606;7.624;2022-09-09T01:00:49;14.50;99.90
11501;DHT22;5807;51.606;7.624;2022-09-09T01:03:22;14.50;99.90
11501;DHT22;5807;51.606;7.624;2022-09-09T01:06:01;14.60;99.90
11501;DHT22;5807;51.606;7.624;2022-09-09T01:08:47;14.60;99.90
11501;DHT22;5807;51.606;7.624;2022-09-09T01:11:21;14.60;99.90
11501;DHT22;5807;51.606;7.624;2022-09-09T01:13:55;14.60;99.90
11501;DHT22;5807;51.606;7.624;2022-09-09T01:16:25;14.70;99.90
11501;DHT22;5807;51.606;7.624;2022-09-09T01:18:54;14.70;99.90
11501;DHT22;5807;51.606;7.624;2022-09-09T01:21:32;14.70;99.90
11501;DHT22;5807;51.606;7.624;2022-09-09T01:24:20;14.70;99.90
11501;DHT22;5807;51.606;7.624;2022-09-09T01:26:51;14.70;99.90
11501;DHT22;5807;51.606;7.624;2022-09-09T01:29:21;14.70;99.90
11501;DHT22;5807;51.606;7.624;2022-09-09T01:31:55;14.60;99.90
11501;DHT22;5807;51.606;7.624;2022-09-09T01:34:26;14.60;99.90
11501;DHT22;5807;51.606;7.624;2022-09-09T01:36:57;14.60;99.90
11501;DHT22;5807;51.606;7.624;2022-09-09T01:39:26;14.60;99.90
11501;DHT22;5807;51.606;7.624;2022-09-09T01:41:55;15.30;99.90
11501;DHT22;5807;51.606;7.624;2022-09-09T01:44:23;14.60;99.90
11501;DHT22;5807;51.606;7.624;2022-09-09T01:46:51;14.50;99.90
11501;DHT22;5807;51.606;7.624;2022-09-09T01:51:48;14.50;99.90
11501;DHT22;5807;51.606;7.624;2022-09-09T01:56:50;14.40;99.90
11501;DHT22;5807;51.606;7.624;2022-09-09T01:59:45;14.30;99.90
11501;DHT22;5807;51.606;7.624;2022-09-09T02:02:18;14.30;99.90
11501;DHT22;5807;51.606;7.624;2022-09-09T02:04:49;14.20;99.90
11501;DHT22;5807;51.606;7.624;2022-09-09T02:07:30;14.20;99.90
11501;DHT22;5807;51.606;7.624;2022-09-09T02:10:03;14.30;99.90
11501;DHT22;5807;51.606;7.624;2022-09-09T02:15:03;14.00;99.90
11501;DHT22;5807;51.606;7.624;2022-09-09T02:17:34;14.00;99.90
11501;DHT22;5807;51.606;7.624;2022-09-09T02:20:05;14.00;99.90
11501;DHT22;5807;51.606;7.624;2022-09-09T02:22:34;14.00;99.90
11501;DHT22;5807;51.606;7.624;2022-09-09T02:25:07;14.00;99.90
11501;DHT22;5807;51.606;7.624;2022-09-09T02:30:04;14.10;99.90
11501;DHT22;5807;51.606;7.624;2022-09-09T02:32:34;14.00;99.90
11501;DHT22;5807;51.606;7.624;2022-09-09T02:35:05;14.20;99.90
11501;DHT22;5807;51.606;7.624;2022-09-09T02:37:37;14.30;99.90
11501;DHT22;5807;51.606;7.624;2022-09-09T02:40:06;14.30;99.90
11501;DHT22;5807;51.606;7.624;2022-09-09T02:42:38;14.40;99.90
11501;DHT22;5807;51.606;7.624;2022-09-09T02:45:08;14.60;99.90
11501;DHT22;5807;51.606;7.624;2022-09-09T02:47:38;14.60;99.90
11501;DHT22;5807;51.606;7.624;2022-09-09T02:50:12;14.60;99.90
11501;DHT22;5807;51.606;7.624;2022-09-09T02:52:49;14.60;99.90
11501;DHT22;5807;51.606;7.624;2022-09-09T02:55:27;14.50;99.90
11501;DHT22;5807;51.606;7.624;2022-09-09T02:57:58;14.60;99.90
11501;DHT22;5807;51.606;7.624;2022-09-09T03:00:28;14.50;99.90
11501;DHT22;5807;51.606;7.624;2022-09-09T03:07:51;14.50;99.90
11501;DHT22;5807;51.606;7.624;2022-09-09T03:22:37;14.60;99.90
11501;DHT22;5807;51.606;7.624;2022-09-09T03:25:04;14.50;99.90
11501;DHT22;5807;51.606;7.624;2022-09-09T03:29:59;14.60;99.90
11501;DHT22;5807;51.606;7.624;2022-09-09T03:32:29;14.70;99.90
11501;DHT22;5807;51.606;7.624;2022-09-09T03:37:25;14.60;99.90
11501;DHT22;5807;51.606;7.624;2022-09-09T03:39:52;14.70;99.90
11501;DHT22;5807;51.606;7.624;2022-09-09T03:44:48;14.70;99.90
11501;DHT22;5807;51.606;7.624;2022-09-09T04:02:04;14.90;99.90
11501;DHT22;5807;51.606;7.624;2022-09-09T04:04:31;14.90;99.90
11501;DHT22;5807;51.606;7.624;2022-09-09T04:11:53;14.80;99.90
11501;DHT22;5807;51.606;7.624;2022-09-09T04:14:21;14.80;99.90
11501;DHT22;5807;51.606;7.624;2022-09-09T04:16:48;12.00;99.90
11501;DHT22;5807;51.606;7.624;2022-09-09T04:19:15;14.80;99.90
11501;DHT22;5807;51.606;7.624;2022-09-09T04:29:06;14.90;99.90
11501;DHT22;5807;51.606;7.624;2022-09-09T04:31:33;14.90;99.90
11501;DHT22;5807;51.606;7.624;2022-09-09T04:34:00;14.90;99.90
11501;DHT22;5807;51.606;7.624;2022-09-09T04:41:26;14.90;99.90
11501;DHT22;5807;51.606;7.624;2022-09-09T04:46:22;15.00;99.90
11501;DHT22;5807;51.606;7.624;2022-09-09T04:48:49;15.10;99.90
11501;DHT22;5807;51.606;7.624;2022-09-09T04:51:17;15.00;99.90
11501;DHT22;5807;51.606;7.624;2022-09-09T04:56:15;15.10;99.90
11501;DHT22;5807;51.606;7.624;2022-09-09T04:58:42;15.10;99.90
11501;DHT22;5807;51.606;7.624;2022-09-09T05:01:12;15.20;99.90
11501;DHT22;5807;51.606;7.624;2022-09-09T05:03:39;15.20;99.90
11501;DHT22;5807;51.606;7.624;2022-09-09T05:06:07;15.40;99.90
11501;DHT22;5807;51.606;7.624;2022-09-09T05:08:36;15.20;99.90
11501;DHT22;5807;51.606;7.624;2022-09-09T05:11:03;15.30;99.90
11501;DHT22;5807;51.606;7.624;2022-09-09T05:13:30;15.30;99.90
11501;DHT22;5807;51.606;7.624;2022-09-09T05:15:58;15.30;99.90
11501;DHT22;5807;51.606;7.624;2022-09-09T05:18:26;15.30;99.90
11501;DHT22;5807;51.606;7.624;2022-09-09T05:21:00;15.40;99.90
11501;DHT22;5807;51.606;7.624;2022-09-09T05:23:27;15.30;99.90
11501;DHT22;5807;51.606;7.624;2022-09-09T05:25:55;15.30;99.90
11501;DHT22;5807;51.606;7.624;2022-09-09T05:28:23;15.30;99.90
11501;DHT22;5807;51.606;7.624;2022-09-09T05:30:58;15.30;99.90
11501;DHT22;5807;51.606;7.624;2022-09-09T05:33:27;15.30;99.90
11501;DHT22;5807;51.606;7.624;2022-09-09T05:35:58;15.30;99.90
11501;DHT22;5807;51.606;7.624;2022-09-09T05:38:25;13.50;99.90
11501;DHT22;5807;51.606;7.624;2022-09-09T05:40:52;15.40;99.90
11501;DHT22;5807;51.606;7.624;2022-09-09T05:45:47;15.40;99.90
11501;DHT22;5807;51.606;7.624;2022-09-09T05:48:14;15.40;99.90
11501;DHT22;5807;51.606;7.624;2022-09-09T05:55:38;15.50;99.90
11501;DHT22;5807;51.606;7.624;2022-09-09T05:58:05;15.50;99.90
11501;DHT22;5807;51.606;7.624;2022-09-09T06:12:52;15.60;99.90
11501;DHT22;5807;51.606;7.624;2022-09-09T06:15:19;15.60;99.90
11501;DHT22;5807;51.606;7.624;2022-09-09T06:27:40;15.80;99.90
11501;DHT22;5807;51.606;7.624;2022-09-09T06:30:09;16.00;99.90
11501;DHT22;5807;51.606;7.624;2022-09-09T06:32:36;16.00;99.90
11501;DHT22;5807;51.606;7.624;2022-09-09T06:35:04;16.00;99.90
11501;DHT22;5807;51.606;7.624;2022-09-09T06:37:31;16.00;99.90
11501;DHT22;5807;51.606;7.624;2022-09-09T06:39:58;16.10;99.90
11501;DHT22;5807;51.606;7.624;2022-09-09T06:42:26;16.10;99.90
11501;DHT22;5807;51.606;7.624;2022-09-09T06:44:53;16.20;99.90
11501;DHT22;5807;51.606;7.624;2022-09-09T06:47:19;16.30;99.90
11501;DHT22;5807;51.606;7.624;2022-09-09T06:49:46;16.30;99.90
11501;DHT22;5807;51.606;7.624;2022-09-09T06:52:13;16.40;99.90
11501;DHT22;5807;51.606;7.624;2022-09-09T06:54:40;16.40;99.90
11501;DHT22;5807;51.606;7.624;2022-09-09T06:57:07;16.50;99.90
11501;DHT22;5807;51.606;7.624;2022-09-09T06:59:35;16.50;99.90
11501;DHT22;5807;51.606;7.624;2022-09-09T07:02:02;16.50;99.90
11501;DHT22;5807;51.606;7.624;2022-09-09T07:04:29;16.50;99.90
11501;DHT22;5807;51.606;7.624;2022-09-09T07:06:56;16.60;99.90
11501;DHT22;5807;51.606;7.624;2022-09-09T07:09:24;16.70;99.90
11501;DHT22;5807;51.606;7.624;2022-09-09T07:11:52;16.70;99.90
11501;DHT22;5807;51.606;7.624;2022-09-09T07:14:19;16.80;99.90
11501;DHT22;5807;51.606;7.624;2022-09-09T07:16:49;16.90;99.90
11501;DHT22;5807;51.606;7.624;2022-09-09T07:19:16;16.90;99.90
11501;DHT22;5807;51.606;7.624;2022-09-09T07:21:44;17.00;99.90
11501;DHT22;5807;51.606;7.624;2022-09-09T07:24:11;17.10;99.90
11501;DHT22;5807;51.606;7.624;2022-09-09T07:26:38;17.10;99.90
11501;DHT22;5807;51.606;7.624;2022-09-09T07:29:05;17.10;99.90
11501;DHT22;5807;51.606;7.624;2022-09-09T07:31:34;17.10;99.90
11501;DHT22;5807;51.606;7.624;2022-09-09T07:34:03;17.10;99.90
11501;DHT22;5807;51.606;7.624;2022-09-09T07:36:32;17.00;99.90
11501;DHT22;5807;51.606;7.624;2022-09-09T07:39:01;16.90;99.90
11501;DHT22;5807;51.606;7.624;2022-09-09T07:41:31;17.00;99.90
11501;DHT22;5807;51.606;7.624;2022-09-09T07:44:03;17.00;99.90
11501;DHT22;5807;51.606;7.624;2022-09-09T07:46:30;17.00;99.90
11501;DHT22;5807;51.606;7.624;2022-09-09T07:48:57;17.10;99.90
11501;DHT22;5807;51.606;7.624;2022-09-09T07:51:27;17.10;99.90
11501;DHT22;5807;51.606;7.624;2022-09-09T07:53:56;17.30;99.90
11501;DHT22;5807;51.606;7.624;2022-09-09T07:56:25;17.50;99.90
11501;DHT22;5807;51.606;7.624;2022-09-09T07:58:53;17.70;99.90
11501;DHT22;5807;51.606;7.624;2022-09-09T08:01:23;17.80;99.90
11501;DHT22;5807;51.606;7.624;2022-09-09T08:03:54;17.90;99.90
11501;DHT22;5807;51.606;7.624;2022-09-09T08:06:21;18.00;99.90
11501;DHT22;5807;51.606;7.624;2022-09-09T08:08:52;18.30;99.90
11501;DHT22;5807;51.606;7.624;2022-09-09T08:11:20;18.50;99.90
11501;DHT22;5807;51.606;7.624;2022-09-09T08:13:49;18.50;99.90
11501;DHT22;5807;51.606;7.624;2022-09-09T08:16:18;18.40;99.90
11501;DHT22;5807;51.606;7.624;2022-09-09T08:18:47;18.40;99.90
11501;DHT22;5807;51.606;7.624;2022-09-09T08:21:16;18.70;99.90
11501;DHT22;5807;51.606;7.624;2022-09-09T08:23:46;19.20;99.90
11501;DHT22;5807;51.606;7.624;2022-09-09T08:26:16;19.60;99.90
11501;DHT22;5807;51.606;7.624;2022-09-09T08:28:48;19.60;99.90
11501;DHT22;5807;51.606;7.624;2022-09-09T08:31:17;19.60;99.90
11501;DHT22;5807;51.606;7.624;2022-09-09T08:33:45;19.50;99.90
11501;DHT22;5807;51.606;7.624;2022-09-09T08:36:14;19.50;99.90
11501;DHT22;5807;51.606;7.624;2022-09-09T08:38:41;19.50;99.90
11501;DHT22;5807;51.606;7.624;2022-09-09T08:41:34;19.70;99.90
11501;DHT22;5807;51.606;7.624;2022-09-09T08:44:07;20.00;99.90
11501;DHT22;5807;51.606;7.624;2022-09-09T08:46:42;20.30;99.90
11501;DHT22;5807;51.606;7.624;2022-09-09T08:49:29;20.20;99.90
11501;DHT22;5807;51.606;7.624;2022-09-09T08:52:02;19.80;99.90
11501;DHT22;5807;51.606;7.624;2022-09-09T08:54:34;19.60;99.90
11501;DHT22;5807;51.606;7.624;2022-09-09T08:57:04;19.40;99.90
11501;DHT22;5807;51.606;7.624;2022-09-09T08:59:36;19.40;99.90
11501;DHT22;5807;51.606;7.624;2022-09-09T09:02:07;19.90;99.90
11501;DHT22;5807;51.606;7.624;2022-09-09T09:04:49;20.50;99.90
11501;DHT22;5807;51.606;7.624;2022-09-09T09:07:28;20.60;99.90
11501;DHT22;5807;51.606;7.624;2022-09-09T09:10:04;20.60;99.90
11501;DHT22;5807;51.606;7.624;2022-09-09T09:12:40;20.50;99.90
11501;DHT22;5807;51.606;7.624;2022-09-09T09:15:14;20.60;99.90
11501;DHT22;5807;51.606;7.624;2022-09-09T09:17:43;20.60;99.90
11501;DHT22;5807;51.606;7.624;2022-09-09T09:20:12;20.50;99.90
11501;DHT22;5807;51.606;7.624;2022-09-09T09:22:47;20.50;99.90
11501;DHT22;5807;51.606;7.624;2022-09-09T09:25:18;20.30;99.90
11501;DHT22;5807;51.606;7.624;2022-09-09T09:27:49;20.10;99.90
11501;DHT22;5807;51.606;7.624;2022-09-09T09:30:22;19.90;99.90
11501;DHT22;5807;51.606;7.624;2022-09-09T09:32:55;19.60;99.90
11501;DHT22;5807;51.606;7.624;2022-09-09T09:35:31;19.60;99.90
11501;DHT22;5807;51.606;7.624;2022-09-09T09:37:59;20.10;99.90
11501;DHT22;5807;51.606;7.624;2022-09-09T09:40:27;20.40;99.90
11501;DHT22;5807;51.606;7.624;2022-09-09T09:42:57;20.40;99.90
11501;DHT22;5807;51.606;7.624;2022-09-09T09:45:28;21.10;99.90
11501;DHT22;5807;51.606;7.624;2022-09-09T09:48:02;21.20;99.90
11501;DHT22;5807;51.606;7.624;2022-09-09T09:50:29;21.50;99.90
11501;DHT22;5807;51.606;7.624;2022-09-09T09:52:58;22.00;99.90
11501;DHT22;5807;51.606;7.624;2022-09-09T09:55:26;22.30;99.90
11501;DHT22;5807;51.606;7.624;2022-09-09T09:58:03;22.50;99.90
11501;DHT22;5807;51.606;7.624;2022-09-09T10:00:30;22.40;99.90
11501;DHT22;5807;51.606;7.624;2022-09-09T10:02:59;22.10;99.90
11501;DHT22;5807;51.606;7.624;2022-09-09T10:05:27;21.80;99.90
11501;DHT22;5807;51.606;7.624;2022-09-09T10:08:05;21.60;99.90
11501;DHT22;5807;51.606;7.624;2022-09-09T10:10:48;21.30;99.90
11501;DHT22;5807;51.606;7.624;2022-09-09T10:13:22;21.20;99.90
11501;DHT22;5807;51.606;7.624;2022-09-09T10:16:01;21.20;99.90
11501;DHT22;5807;51.606;7.624;2022-09-09T10:18:52;21.20;99.90
11501;DHT22;5807;51.606;7.624;2022-09-09T10:24:31;21.10;99.90
11501;DHT22;5807;51.606;7.624;2022-09-09T10:27:03;21.40;99.90
11501;DHT22;5807;51.606;7.624;2022-09-09T10:29:52;21.90;99.90
11501;DHT22;5807;51.606;7.624;2022-09-09T10:32:36;22.10;99.90
11501;DHT22;5807;51.606;7.624;2022-09-09T10:35:10;22.10;99.90
11501;DHT22;5807;51.606;7.624;2022-09-09T10:40:40;22.00;99.60
11501;DHT22;5807;51.606;7.624;2022-09-09T10:43:18;22.40;99.90
11501;DHT22;5807;51.606;7.624;2022-09-09T10:45:57;22.80;99.90
11501;DHT22;5807;51.606;7.624;2022-09-09T10:48:34;22.80;99.20
11501;DHT22;5807;51.606;7.624;2022-09-09T10:51:20;23.30;99.90
11501;DHT22;5807;51.606;7.624;2022-09-09T10:53:58;23.70;96.50
11501;DHT22;5807;51.606;7.624;2022-09-09T10:56:31;23.50;96.80
11501;DHT22;5807;51.606;7.624;2022-09-09T10:59:02;23.50;96.60
11501;DHT22;5807;51.606;7.624;2022-09-09T11:01:43;23.40;94.50
11501;DHT22;5807;51.606;7.624;2022-09-09T11:04:16;23.40;94.10
11501;DHT22;5807;51.606;7.624;2022-09-09T11:06:46;23.20;95.10
11501;DHT22;5807;51.606;7.624;2022-09-09T11:09:17;23.10;94.70
11501;DHT22;5807;51.606;7.624;2022-09-09T11:11:51;23.50;95.70
11501;DHT22;5807;51.606;7.624;2022-09-09T11:14:29;23.60;93.00
11501;DHT22;5807;51.606;7.624;2022-09-09T11:17:00;23.50;91.90
11501;DHT22;5807;51.606;7.624;2022-09-09T11:19:31;23.10;94.40
11501;DHT22;5807;51.606;7.624;2022-09-09T11:22:02;23.40;94.40
11501;DHT22;5807;51.606;7.624;2022-09-09T11:24:34;23.40;95.00
11501;DHT22;5807;51.606;7.624;2022-09-09T11:27:08;23.30;92.60
11501;DHT22;5807;51.606;7.624;2022-09-09T11:30:04;22.80;94.10
11501;DHT22;5807;51.606;7.624;2022-09-09T11:33:00;22.40;95.30
11501;DHT22;5807;51.606;7.624;2022-09-09T11:35:38;22.90;95.90
11501;DHT22;5807;51.606;7.624;2022-09-09T11:38:19;23.40;93.10
11501;DHT22;5807;51.606;7.624;2022-09-09T11:40:55;23.70;91.90
11501;DHT22;5807;51.606;7.624;2022-09-09T11:43:26;23.40;92.30
11501;DHT22;5807;51.606;7.624;2022-09-09T11:45:55;23.50;91.90
11501;DHT22;5807;51.606;7.624;2022-09-09T11:48:30;23.60;90.90
11501;DHT22;5807;51.606;7.624;2022-09-09T11:51:01;23.90;94.30
11501;DHT22;5807;51.606;7.624;2022-09-09T11:53:29;24.30;92.70
11501;DHT22;5807;51.606;7.624;2022-09-09T11:56:12;24.30;90.60
11501;DHT22;5807;51.606;7.624;2022-09-09T11:58:43;24.30;93.40
11501;DHT22;5807;51.606;7.624;2022-09-09T12:01:15;23.80;92.00
11501;DHT22;5807;51.606;7.624;2022-09-09T12:03:45;23.10;92.00
11501;DHT22;5807;51.606;7.624;2022-09-09T12:06:17;22.70;94.00
11501;DHT22;5807;51.606;7.624;2022-09-09T12:08:48;22.40;94.90
11501;DHT22;5807;51.606;7.624;2022-09-09T12:11:24;22.40;94.40
11501;DHT22;5807;51.606;7.624;2022-09-09T12:13:55;22.60;95.20
11501;DHT22;5807;51.606;7.624;2022-09-09T12:16:31;22.90;93.90
11501;DHT22;5807;51.606;7.624;2022-09-09T12:19:06;22.80;93.30
11501;DHT22;5807;51.606;7.624;2022-09-09T12:21:39;22.60;92.10
11501;DHT22;5807;51.606;7.624;2022-09-09T12:24:13;22.30;93.70
11501;DHT22;5807;51.606;7.624;2022-09-09T12:26:46;22.00;93.70
11501;DHT22;5807;51.606;7.624;2022-09-09T12:29:23;21.80;94.80
11501;DHT22;5807;51.606;7.624;2022-09-09T12:31:58;21.70;93.70
11501;DHT22;5807;51.606;7.624;2022-09-09T12:34:35;22.20;94.60
11501;DHT22;5807;51.606;7.624;2022-09-09T12:37:10;21.80;94.60
11501;DHT22;5807;51.606;7.624;2022-09-09T12:39:43;21.70;94.60
11501;DHT22;5807;51.606;7.624;2022-09-09T12:42:17;21.70;94.40
11501;DHT22;5807;51.606;7.624;2022-09-09T12:44:55;21.60;95.40
11501;DHT22;5807;51.606;7.624;2022-09-09T12:47:25;21.60;95.60
11501;DHT22;5807;51.606;7.624;2022-09-09T12:49:55;21.50;95.50
11501;DHT22;5807;51.606;7.624;2022-09-09T12:52:26;21.40;96.30
11501;DHT22;5807;51.606;7.624;2022-09-09T12:54:55;21.40;95.60
11501;DHT22;5807;51.606;7.624;2022-09-09T12:57:25;20.80;99.90
11501;DHT22;5807;51.606;7.624;2022-09-09T13:00:03;20.80;99.90
11501;DHT22;5807;51.606;7.624;2022-09-09T13:02:31;20.30;99.90
11501;DHT22;5807;51.606;7.624;2022-09-09T13:05:15;19.70;99.90
11501;DHT22;5807;51.606;7.624;2022-09-09T13:10:12;18.60;99.90
11501;DHT22;5807;51.606;7.624;2022-09-09T13:12:39;18.80;99.90
11501;DHT22;5807;51.606;7.624;2022-09-09T13:15:15;18.60;99.90
11501;DHT22;5807;51.606;7.624;2022-09-09T13:17:50;18.90;99.90
11501;DHT22;5807;51.606;7.624;2022-09-09T13:20:20;19.00;99.90
11501;DHT22;5807;51.606;7.624;2022-09-09T13:22:48;19.00;99.90
11501;DHT22;5807;51.606;7.624;2022-09-09T13:25:21;19.10;99.90
11501;DHT22;5807;51.606;7.624;2022-09-09T13:27:59;19.00;99.90
11501;DHT22;5807;51.606;7.624;2022-09-09T13:30:29;19.00;99.90
11501;DHT22;5807;51.606;7.624;2022-09-09T13:35:51;18.90;99.90
11501;DHT22;5807;51.606;7.624;2022-09-09T13:38:20;18.80;99.90
11501;DHT22;5807;51.606;7.624;2022-09-09T13:40:56;18.90;99.90
11501;DHT22;5807;51.606;7.624;2022-09-09T13:43:25;19.20;99.90
11501;DHT22;5807;51.606;7.624;2022-09-09T13:45:55;19.70;99.90
11501;DHT22;5807;51.606;7.624;2022-09-09T13:48:22;20.00;99.90
11501;DHT22;5807;51.606;7.624;2022-09-09T13:50:59;19.90;99.90
11501;DHT22;5807;51.606;7.624;2022-09-09T13:53:27;19.90;99.90
11501;DHT22;5807;51.606;7.624;2022-09-09T13:55:55;20.40;99.90
11501;DHT22;5807;51.606;7.624;2022-09-09T13:58:23;20.50;99.90
11501;DHT22;5807;51.606;7.624;2022-09-09T14:00:51;20.50;99.90
11501;DHT22;5807;51.606;7.624;2022-09-09T14:03:18;20.70;99.90
11501;DHT22;5807;51.606;7.624;2022-09-09T14:05:45;21.00;99.90
11501;DHT22;5807;51.606;7.624;2022-09-09T14:08:22;21.50;99.90
11501;DHT22;5807;51.606;7.624;2022-09-09T14:11:01;22.10;99.90
11501;DHT22;5807;51.606;7.624;2022-09-09T14:13:28;22.30;99.90
11501;DHT22;5807;51.606;7.624;2022-09-09T14:15:55;22.00;99.90
11501;DHT22;5807;51.606;7.624;2022-09-09T14:18:22;21.70;99.90
11501;DHT22;5807;51.606;7.624;2022-09-09T14:20:50;21.30;99.90
11501;DHT22;5807;51.606;7.624;2022-09-09T14:23:18;20.90;99.90
11501;DHT22;5807;51.606;7.624;2022-09-09T14:25:47;20.70;99.90
11501;DHT22;5807;51.606;7.624;2022-09-09T14:28:15;20.50;99.90
11501;DHT22;5807;51.606;7.624;2022-09-09T14:30:43;20.30;99.90
11501;DHT22;5807;51.606;7.624;2022-09-09T14:33:14;20.10;99.90
11501;DHT22;5807;51.606;7.624;2022-09-09T14:35:42;19.70;99.90
11501;DHT22;5807;51.606;7.624;2022-09-09T14:38:09;19.30;99.90
11501;DHT22;5807;51.606;7.624;2022-09-09T14:40:38;18.90;99.90
11501;DHT22;5807;51.606;7.624;2022-09-09T14:43:05;18.60;99.90
11501;DHT22;5807;51.606;7.624;2022-09-09T14:45:32;18.40;99.90
11501;DHT22;5807;51.606;7.624;2022-09-09T14:47:59;18.30;99.90
11501;DHT22;5807;51.606;7.624;2022-09-09T14:50:26;18.30;99.90
11501;DHT22;5807;51.606;7.624;2022-09-09T14:52:53;18.20;99.90
11501;DHT22;5807;51.606;7.624;2022-09-09T14:55:19;18.60;99.90
11501;DHT22;5807;51.606;7.624;2022-09-09T14:57:48;19.20;99.90
11501;DHT22;5807;51.606;7.624;2022-09-09T15:00:15;19.60;99.90
11501;DHT22;5807;51.606;7.624;2022-09-09T15:02:42;19.90;99.90
11501;DHT22;5807;51.606;7.624;2022-09-09T15:05:09;20.10;99.90
11501;DHT22;5807;51.606;7.624;2022-09-09T15:07:36;20.40;99.90
11501;DHT22;5807;51.606;7.624;2022-09-09T15:10:04;20.60;99.90
11501;DHT22;5807;51.606;7.624;2022-09-09T15:12:32;20.40;99.90
11501;DHT22;5807;51.606;7.624;2022-09-09T15:15:02;20.40;99.90
11501;DHT22;5807;51.606;7.624;2022-09-09T15:17:29;20.20;99.90
11501;DHT22;5807;51.606;7.624;2022-09-09T15:19:56;20.00;99.90
11501;DHT22;5807;51.606;7.624;2022-09-09T15:22:24;19.80;99.90
11501;DHT22;5807;51.606;7.624;2022-09-09T15:24:51;19.70;99.90
11501;DHT22;5807;51.606;7.624;2022-09-09T15:27:18;19.40;99.90
11501;DHT22;5807;51.606;7.624;2022-09-09T15:29:45;19.20;99.90
11501;DHT22;5807;51.606;7.624;2022-09-09T15:32:13;19.10;99.90
11501;DHT22;5807;51.606;7.624;2022-09-09T15:34:40;19.00;99.90
11501;DHT22;5807;51.606;7.624;2022-09-09T15:37:10;19.00;99.90
11501;DHT22;5807;51.606;7.624;2022-09-09T15:39:38;18.90;99.90
11501;DHT22;5807;51.606;7.624;2022-09-09T15:42:29;18.80;99.90
11501;DHT22;5807;51.606;7.624;2022-09-09T15:44:56;18.70;99.90
11501;DHT22;5807;51.606;7.624;2022-09-09T15:47:24;18.60;99.90
11501;DHT22;5807;51.606;7.624;2022-09-09T15:49:52;18.60;99.90
11501;DHT22;5807;51.606;7.624;2022-09-09T15:52:19;18.60;99.90
11501;DHT22;5807;51.606;7.624;2022-09-09T15:54:45;18.50;99.90
11501;DHT22;5807;51.606;7.624;2022-09-09T15:57:13;18.60;99.90
11501;DHT22;5807;51.606;7.624;2022-09-09T15:59:40;18.50;99.90
11501;DHT22;5807;51.606;7.624;2022-09-09T16:02:06;18.40;99.90
11501;DHT22;5807;51.606;7.624;2022-09-09T16:04:35;18.30;99.90
11501;DHT22;5807;51.606;7.624;2022-09-09T16:07:03;18.10;99.90
11501;DHT22;5807;51.606;7.624;2022-09-09T16:09:31;16.80;99.90
11501;DHT22;5807;51.606;7.624;2022-09-09T16:12:00;16.20;99.90
11501;DHT22;5807;51.606;7.624;2022-09-09T16:14:28;16.20;99.90
11501;DHT22;5807;51.606;7.624;2022-09-09T16:19:26;15.60;99.90
11501;DHT22;5807;51.606;7.624;2022-09-09T16:24:22;15.30;99.90
11501;DHT22;5807;51.606;7.624;2022-09-09T16:26:53;15.10;99.90
11501;DHT22;5807;51.606;7.624;2022-09-09T16:31:49;15.10;99.90
11501;DHT22;5807;51.606;7.624;2022-09-09T16:34:17;15.10;99.90
11501;DHT22;5807;51.606;7.624;2022-09-09T16:36:46;15.00;99.90
11501;DHT22;5807;51.606;7.624;2022-09-09T16:39:16;15.00;99.90
11501;DHT22;5807;51.606;7.624;2022-09-09T16:41:44;15.10;99.90
11501;DHT22;5807;51.606;7.624;2022-09-09T16:44:14;15.10;99.90
11501;DHT22;5807;51.606;7.624;2022-09-09T16:46:44;15.10;99.90
11501;DHT22;5807;51.606;7.624;2022-09-09T16:49:13;15.10;99.90
11501;DHT22;5807;51.606;7.624;2022-09-09T16:51:42;15.20;99.90
11501;DHT22;5807;51.606;7.624;2022-09-09T16:54:10;15.20;99.90
11501;DHT22;5807;51.606;7.624;2022-09-09T16:56:42;15.20;99.90
11501;DHT22;5807;51.606;7.624;2022-09-09T16:59:11;15.30;99.90
11501;DHT22;5807;51.606;7.624;2022-09-09T17:01:39;15.40;99.90
11501;DHT22;5807;51.606;7.624;2022-09-09T17:04:08;15.50;99.90
11501;DHT22;5807;51.606;7.624;2022-09-09T17:06:36;15.50;99.90
11501;DHT22;5807;51.606;7.624;2022-09-09T17:09:05;15.50;99.90
11501;DHT22;5807;51.606;7.624;2022-09-09T17:11:33;15.60;99.90
11501;DHT22;5807;51.606;7.624;2022-09-09T17:14:01;15.60;99.90
11501;DHT22;5807;51.606;7.624;2022-09-09T17:16:30;15.60;99.90
11501;DHT22;5807;51.606;7.624;2022-09-09T17:18:57;15.60;99.90
11501;DHT22;5807;51.606;7.624;2022-09-09T17:21:26;15.60;99.90
11501;DHT22;5807;51.606;7.624;2022-09-09T17:23:54;15.60;99.90
11501;DHT22;5807;51.606;7.624;2022-09-09T17:26:23;15.60;99.90
11501;DHT22;5807;51.606;7.624;2022-09-09T17:28:52;15.60;99.90
11501;DHT22;5807;51.606;7.624;2022-09-09T17:31:22;15.60;99.90
11501;DHT22;5807;51.606;7.624;2022-09-09T17:33:50;15.60;99.90
11501;DHT22;5807;51.606;7.624;2022-09-09T17:36:19;15.60;99.90
11501;DHT22;5807;51.606;7.624;2022-09-09T17:38:47;15.60;99.90
11501;DHT22;5807;51.606;7.624;2022-09-09T17:41:16;15.60;99.90
11501;DHT22;5807;51.606;7.624;2022-09-09T17:43:44;15.50;99.90
11501;DHT22;5807;51.606;7.624;2022-09-09T17:46:12;15.60;99.90
11501;DHT22;5807;51.606;7.624;2022-09-09T17:48:42;15.60;99.90
11501;DHT22;5807;51.606;7.624;2022-09-09T17:51:12;15.60;99.90
11501;DHT22;5807;51.606;7.624;2022-09-09T17:53:41;15.50;99.90
11501;DHT22;5807;51.606;7.624;2022-09-09T17:56:10;15.60;99.90
11501;DHT22;5807;51.606;7.624;2022-09-09T17:58:38;15.60;99.90
11501;DHT22;5807;51.606;7.624;2022-09-09T18:01:06;15.60;99.90
11501;DHT22;5807;51.606;7.624;2022-09-09T18:03:35;15.60;99.90
11501;DHT22;5807;51.606;7.624;2022-09-09T18:06:05;15.60;99.90
11501;DHT22;5807;51.606;7.624;2022-09-09T18:08:32;15.60;99.90
11501;DHT22;5807;51.606;7.624;2022-09-09T18:11:00;15.60;99.90
11501;DHT22;5807;51.606;7.624;2022-09-09T18:13:27;15.60;99.90
11501;DHT22;5807;51.606;7.624;2022-09-09T18:15:55;15.60;99.90